createdAt,value
2022-10-11T00:00:10.878Z,95627.91
2022-10-11T00:02:37.756Z,95623.47
2022-10-11T00:05:05.037Z,95616.81
2022-10-11T00:07:31.720Z,95626.94
2022-10-11T00:09:58.585Z,95641.72
2022-10-11T00:12:25.517Z,95622.47
2022-10-11T00:14:52.083Z,95603.34
2022-10-11T00:17:18.910Z,95617.47
2022-10-11T00:19:45.530Z,95634.31
2022-10-11T00:22:12.256Z,95586.56
2022-10-11T00:24:38.917Z,95622.06
2022-10-11T00:27:05.589Z,95572.00
2022-10-11T00:29:32.180Z,95591.22
2022-10-11T00:31:59.020Z,95609.03
2022-10-11T00:34:25.685Z,95603.41
2022-10-11T00:36:52.273Z,95615.25
2022-10-11T00:39:18.998Z,95579.47
2022-10-11T00:41:47.833Z,95623.88
2022-10-11T00:44:19.985Z,95617.53
2022-10-11T00:46:56.018Z,95610.25
2022-10-11T00:49:28.221Z,95617.28
2022-10-11T00:52:04.897Z,95599.31
2022-10-11T00:54:36.225Z,95622.13
2022-10-11T00:57:07.109Z,95585.91
2022-10-11T00:59:41.599Z,95623.13
2022-10-11T01:02:10.156Z,95595.50
2022-10-11T01:04:36.952Z,95608.56
2022-10-11T01:07:03.994Z,95620.41
2022-10-11T01:09:31.468Z,95608.59
2022-10-11T01:12:01.362Z,95583.84
2022-10-11T01:15:02.859Z,95628.38
2022-10-11T01:17:45.188Z,95631.13
2022-10-11T01:20:27.211Z,95626.00
2022-10-11T01:23:26.828Z,95617.34
2022-10-11T01:26:10.253Z,95611.91
2022-10-11T01:28:36.902Z,95618.13
2022-10-11T01:31:28.774Z,95607.81
2022-10-11T01:34:02.221Z,95529.38
2022-10-11T01:36:38.238Z,95599.63
2022-10-11T01:39:24.413Z,95570.19
2022-10-11T01:41:55.628Z,95583.69
2022-10-11T01:44:26.036Z,95612.53
2022-10-11T01:46:53.404Z,95554.25
2022-10-11T01:49:20.569Z,95596.88
2022-10-11T01:51:52.523Z,95544.38
2022-10-11T01:55:09.156Z,95618.16
2022-10-11T01:57:51.327Z,95615.44
2022-10-11T02:00:24.431Z,95591.00
2022-10-11T02:03:12.180Z,95615.13
2022-10-11T02:05:46.539Z,95619.09
2022-10-11T02:08:55.133Z,95606.47
2022-10-11T02:11:27.788Z,95591.13
2022-10-11T02:14:04.928Z,95600.56
2022-10-11T02:16:37.326Z,95609.66
2022-10-11T02:19:06.649Z,95582.16
2022-10-11T02:21:36.213Z,95613.44
2022-10-11T02:24:18.321Z,95585.97
2022-10-11T02:26:52.857Z,95602.03
2022-10-11T02:29:22.337Z,95578.38
2022-10-11T02:31:51.391Z,95574.72
2022-10-11T02:34:23.212Z,95604.47
2022-10-11T02:37:24.842Z,95593.84
2022-10-11T02:40:01.560Z,95595.81
2022-10-11T02:42:34.128Z,95558.03
2022-10-11T02:45:18.959Z,95581.88
2022-10-11T02:47:46.977Z,95572.59
2022-10-11T02:50:15.538Z,95589.88
2022-10-11T02:52:42.280Z,95592.63
2022-10-11T02:55:10.019Z,95592.59
2022-10-11T02:57:36.861Z,95571.03
2022-10-11T03:00:05.150Z,95591.69
2022-10-11T03:02:31.706Z,95587.13
2022-10-11T03:04:58.244Z,95563.94
2022-10-11T03:07:25.007Z,95585.63
2022-10-11T03:09:51.932Z,95584.84
2022-10-11T03:12:18.801Z,95580.78
2022-10-11T03:14:45.631Z,95555.56
2022-10-11T03:17:35.225Z,95534.06
2022-10-11T03:19:59.428Z,95588.66
2022-10-11T03:22:26.140Z,95570.16
2022-10-11T03:24:52.834Z,95580.31
2022-10-11T03:27:20.233Z,95569.09
2022-10-11T03:29:46.875Z,95568.75
2022-10-11T03:32:13.808Z,95558.91
2022-10-11T03:34:40.724Z,95562.97
2022-10-11T03:37:07.544Z,95572.38
2022-10-11T03:39:34.389Z,95579.50
2022-10-11T03:42:01.281Z,95578.13
2022-10-11T03:44:28.054Z,95578.16
2022-10-11T03:46:54.842Z,95571.75
2022-10-11T03:49:21.991Z,95572.22
2022-10-11T03:51:48.758Z,95575.88
2022-10-11T03:54:15.385Z,95568.28
2022-10-11T03:56:42.049Z,95568.75
2022-10-11T03:59:09.127Z,95571.84
2022-10-11T04:01:38.385Z,95559.69
2022-10-11T04:04:05.681Z,95575.63
2022-10-11T04:06:32.819Z,95553.78
2022-10-11T04:08:59.947Z,95572.16
2022-10-11T04:11:27.167Z,95573.81
2022-10-11T04:13:53.885Z,95573.97
2022-10-11T04:16:20.608Z,95577.47
2022-10-11T04:18:47.380Z,95539.38
2022-10-11T04:21:14.068Z,95575.66
2022-10-11T04:23:40.774Z,95570.78
2022-10-11T04:26:09.155Z,95538.94
2022-10-11T04:28:36.384Z,95565.94
2022-10-11T04:31:05.162Z,95563.50
2022-10-11T04:33:32.073Z,95573.84
2022-10-11T04:35:58.932Z,95577.66
2022-10-11T04:38:28.636Z,95581.28
2022-10-11T04:40:55.521Z,95566.25
2022-10-11T04:43:22.307Z,95585.53
2022-10-11T04:45:51.242Z,95547.13
2022-10-11T04:48:21.333Z,95587.19
2022-10-11T04:50:48.254Z,95509.00
2022-10-11T04:53:15.412Z,95571.88
2022-10-11T04:55:42.283Z,95562.94
2022-10-11T04:58:08.917Z,95557.25
2022-10-11T05:00:35.765Z,95578.41
2022-10-11T05:03:02.401Z,95556.25
2022-10-11T05:05:29.083Z,95575.50
2022-10-11T05:07:55.742Z,95566.25
2022-10-11T05:10:22.395Z,95577.81
2022-10-11T05:12:49.007Z,95560.31
2022-10-11T05:15:15.693Z,95583.56
2022-10-11T05:17:42.215Z,95578.69
2022-10-11T05:20:09.665Z,95584.78
2022-10-11T05:22:36.438Z,95582.47
2022-10-11T05:25:03.562Z,95571.81
2022-10-11T05:27:30.232Z,95561.22
2022-10-11T05:29:56.802Z,95592.31
2022-10-11T05:32:26.721Z,95570.72
2022-10-11T05:34:54.715Z,95590.56
2022-10-11T05:37:21.397Z,95593.13
2022-10-11T05:39:48.311Z,95596.72
2022-10-11T05:42:15.112Z,95591.66
2022-10-11T05:44:41.977Z,95614.47
2022-10-11T05:47:08.811Z,95613.34
2022-10-11T05:49:35.828Z,95618.03
2022-10-11T05:52:02.433Z,95614.19
2022-10-11T05:54:31.070Z,95606.97
2022-10-11T05:56:57.941Z,95596.66
2022-10-11T05:59:24.661Z,95567.53
2022-10-11T06:01:51.340Z,95567.16
2022-10-11T06:04:19.163Z,95580.47
2022-10-11T06:06:46.132Z,95579.53
2022-10-11T06:09:13.063Z,95565.81
2022-10-11T06:11:41.393Z,95577.69
2022-10-11T06:14:09.509Z,95567.41
2022-10-11T06:16:36.094Z,95576.06
2022-10-11T06:19:02.994Z,95583.75
2022-10-11T06:21:29.702Z,95561.88
2022-10-11T06:24:01.134Z,95575.06
2022-10-11T06:26:29.551Z,95566.31
2022-10-11T06:28:56.491Z,95584.53
2022-10-11T06:31:23.256Z,95587.69
2022-10-11T06:33:50.087Z,95582.50
2022-10-11T06:36:17.236Z,95595.72
2022-10-11T06:38:45.388Z,95593.13
2022-10-11T06:41:27.090Z,95587.06
2022-10-11T06:43:54.100Z,95610.84
2022-10-11T06:46:22.880Z,95609.88
2022-10-11T06:48:50.196Z,95601.25
2022-10-11T06:51:19.114Z,95610.00
2022-10-11T06:53:59.742Z,95623.22
2022-10-11T06:56:28.174Z,95609.38
2022-10-11T06:58:56.144Z,95623.16
2022-10-11T07:01:24.045Z,95610.75
2022-10-11T07:03:55.011Z,95617.06
2022-10-11T07:06:26.962Z,95610.34
2022-10-11T07:08:54.916Z,95617.41
2022-10-11T07:11:24.341Z,95617.41
2022-10-11T07:13:55.591Z,95621.94
2022-10-11T07:16:23.412Z,95617.06
2022-10-11T07:18:58.813Z,95589.44
2022-10-11T07:21:27.606Z,95580.53
2022-10-11T07:23:54.257Z,95563.53
2022-10-11T07:26:21.047Z,95580.53
2022-10-11T07:28:48.051Z,95609.94
2022-10-11T07:31:18.588Z,95604.94
2022-10-11T07:33:45.378Z,95613.16
2022-10-11T07:36:12.918Z,95624.34
2022-10-11T07:38:41.249Z,95621.94
2022-10-11T07:41:09.739Z,95608.84
2022-10-11T07:43:37.654Z,95617.13
2022-10-11T07:46:05.843Z,95625.44
2022-10-11T07:48:36.716Z,95628.25
2022-10-11T07:51:07.871Z,95626.91
2022-10-11T07:53:45.267Z,95625.09
2022-10-11T07:56:13.400Z,95620.78
2022-10-11T07:58:41.856Z,95624.28
2022-10-11T08:01:10.433Z,95622.06
2022-10-11T08:03:38.464Z,95618.16
2022-10-11T08:06:09.208Z,95603.50
2022-10-11T08:08:37.265Z,95599.31
2022-10-11T08:11:04.375Z,95606.06
2022-10-11T08:13:31.100Z,95588.84
2022-10-11T08:15:57.959Z,95606.00
2022-10-11T08:18:24.979Z,95593.66
2022-10-11T08:20:52.170Z,95602.19
2022-10-11T08:23:19.594Z,95620.13
2022-10-11T08:25:47.712Z,95605.81
2022-10-11T08:28:17.651Z,95636.50
2022-10-11T08:30:52.621Z,95639.31
2022-10-11T08:33:21.839Z,95642.63
2022-10-11T08:35:49.203Z,95626.13
2022-10-11T08:38:16.566Z,95627.09
2022-10-11T08:40:49.581Z,95616.69
2022-10-11T08:43:32.460Z,95631.66
2022-10-11T08:46:03.572Z,95627.59
2022-10-11T08:48:36.970Z,95629.84
2022-10-11T08:51:13.953Z,95627.38
2022-10-11T08:53:51.752Z,95640.19
2022-10-11T08:56:20.697Z,95626.44
2022-10-11T08:58:55.038Z,95624.94
2022-10-11T09:01:25.036Z,95630.81
2022-10-11T09:03:52.699Z,95625.38
2022-10-11T09:06:31.207Z,95628.78
2022-10-11T09:09:31.030Z,95613.09
2022-10-11T09:12:06.265Z,95622.00
2022-10-11T09:14:54.272Z,95628.25
2022-10-11T09:17:26.749Z,95628.41
2022-10-11T09:20:31.871Z,95621.69
2022-10-11T09:23:20.967Z,95625.00
2022-10-11T09:26:01.701Z,95627.47
2022-10-11T09:29:27.355Z,95625.81
2022-10-11T09:31:56.071Z,95628.06
2022-10-11T09:34:27.460Z,95612.19
2022-10-11T09:37:03.686Z,95623.38
2022-10-11T09:39:50.287Z,95614.94
2022-10-11T09:42:17.226Z,95593.63
2022-10-11T09:44:49.910Z,95608.84
2022-10-11T09:47:27.225Z,95614.94
2022-10-11T09:49:58.170Z,95611.94
2022-10-11T09:52:25.813Z,95607.81
2022-10-11T09:54:56.573Z,95605.00
2022-10-11T09:57:23.214Z,95603.31
2022-10-11T10:00:01.807Z,95601.25
2022-10-11T10:02:30.839Z,95608.47
2022-10-11T10:05:09.591Z,95605.81
2022-10-11T10:07:41.054Z,95600.19
2022-10-11T10:10:43.268Z,95590.28
2022-10-11T10:13:51.570Z,95597.38
2022-10-11T10:16:26.408Z,95601.16
2022-10-11T10:19:16.008Z,95579.13
2022-10-11T10:21:49.340Z,95590.94
2022-10-11T10:24:37.187Z,95586.47
2022-10-11T10:27:23.030Z,95585.00
2022-10-11T10:30:10.368Z,95585.56
2022-10-11T10:32:53.317Z,95584.31
2022-10-11T10:35:29.391Z,95577.06
2022-10-11T10:38:08.166Z,95562.50
2022-10-11T10:40:45.483Z,95574.53
2022-10-11T10:43:23.869Z,95571.72
2022-10-11T10:46:12.058Z,95565.56
2022-10-11T10:49:52.473Z,95562.53
2022-10-11T10:52:05.392Z,95556.47
2022-10-11T10:54:50.535Z,95564.88
2022-10-11T10:57:50.529Z,95557.19
2022-10-11T11:00:22.732Z,95545.97
2022-10-11T11:03:14.218Z,95552.81
2022-10-11T11:05:58.011Z,95525.88
2022-10-11T11:09:02.029Z,95537.66
2022-10-11T11:11:41.682Z,95536.19
2022-10-11T11:14:21.741Z,95548.09
2022-10-11T11:17:07.278Z,95537.81
2022-10-11T11:19:33.846Z,95544.88
2022-10-11T11:22:12.535Z,95533.22
2022-10-11T11:25:07.293Z,95526.28
2022-10-11T11:27:55.624Z,95530.38
2022-10-11T11:31:02.492Z,95524.94
2022-10-11T11:33:48.691Z,95525.66
2022-10-11T11:36:26.214Z,95518.78
2022-10-11T11:38:59.805Z,95521.66
2022-10-11T11:41:33.429Z,95505.38
2022-10-11T11:44:35.308Z,95518.72
2022-10-11T11:47:11.822Z,95498.69
2022-10-11T11:52:23.226Z,95510.69
2022-10-11T11:55:08.416Z,95514.94
2022-10-11T11:57:53.142Z,95511.38
2022-10-11T12:00:31.161Z,95497.88
2022-10-11T12:06:14.645Z,95513.28
2022-10-11T12:08:44.745Z,95511.69
2022-10-11T12:11:40.229Z,95496.41
2022-10-11T12:17:09.112Z,95506.09
2022-10-11T12:19:38.495Z,95502.03
2022-10-11T12:22:27.044Z,95501.00
2022-10-11T12:25:21.267Z,95490.09
2022-10-11T12:27:52.002Z,95503.75
2022-10-11T12:30:53.326Z,95496.34
2022-10-11T12:33:45.608Z,95490.63
2022-10-11T12:36:37.422Z,95496.72
2022-10-11T12:39:19.848Z,95487.91
2022-10-11T12:41:55.437Z,95492.47
2022-10-11T12:44:30.065Z,95500.03
2022-10-11T12:47:02.731Z,95487.31
2022-10-11T12:49:41.569Z,95490.03
2022-10-11T12:52:17.365Z,95478.78
2022-10-11T12:55:14.602Z,95484.91
2022-10-11T12:58:22.568Z,95473.47
2022-10-11T13:00:52.342Z,95475.00
2022-10-11T13:03:44.503Z,95460.56
2022-10-11T13:06:26.022Z,95484.47
2022-10-11T13:09:03.103Z,95474.97
2022-10-11T13:11:33.781Z,95437.16
2022-10-11T13:14:24.796Z,95477.88
2022-10-11T13:17:00.390Z,95482.78
2022-10-11T13:19:28.449Z,95478.03
2022-10-11T13:21:58.944Z,95481.13
2022-10-11T13:24:27.748Z,95481.19
2022-10-11T13:26:57.070Z,95476.72
2022-10-11T13:29:38.350Z,95475.19
2022-10-11T13:32:36.801Z,95473.91
2022-10-11T13:35:14.728Z,95470.38
2022-10-11T13:37:46.170Z,95478.66
2022-10-11T13:40:15.939Z,95465.44
2022-10-11T13:42:43.485Z,95473.97
2022-10-11T13:45:14.432Z,95465.44
2022-10-11T13:47:41.156Z,95471.16
2022-10-11T13:50:19.293Z,95478.16
2022-10-11T13:53:12.041Z,95477.91
2022-10-11T13:55:41.687Z,95477.56
2022-10-11T13:58:32.660Z,95472.06
2022-10-11T14:01:02.805Z,95476.34
2022-10-11T14:03:43.665Z,95473.72
2022-10-11T14:06:11.073Z,95468.91
2022-10-11T14:08:43.202Z,95464.38
2022-10-11T14:11:12.307Z,95466.81
2022-10-11T14:13:47.490Z,95478.50
2022-10-11T14:16:30.156Z,95462.66
2022-10-11T14:18:59.799Z,95467.78
2022-10-11T14:21:31.423Z,95467.19
2022-10-11T14:24:10.679Z,95470.09
2022-10-11T14:26:43.756Z,95465.03
2022-10-11T14:29:13.354Z,95475.34
2022-10-11T14:31:42.260Z,95460.34
2022-10-11T14:34:16.473Z,95467.88
2022-10-11T14:36:43.100Z,95455.22
2022-10-11T14:39:16.537Z,95454.25
2022-10-11T14:41:43.619Z,95460.53
2022-10-11T14:44:10.578Z,95447.19
2022-10-11T14:46:38.821Z,95464.31
2022-10-11T14:49:36.250Z,95473.56
2022-10-11T14:52:05.885Z,95470.75
2022-10-11T14:54:33.336Z,95473.44
2022-10-11T14:57:02.552Z,95474.97
2022-10-11T14:59:36.398Z,95481.63
2022-10-11T15:02:05.636Z,95473.88
2022-10-11T15:04:32.997Z,95481.31
2022-10-11T15:07:00.079Z,95472.50
2022-10-11T15:09:27.001Z,95472.47
2022-10-11T15:11:55.083Z,95473.22
2022-10-11T15:14:23.486Z,95474.63
2022-10-11T15:16:50.491Z,95476.59
2022-10-11T15:19:21.255Z,95469.97
2022-10-11T15:21:48.689Z,95464.00
2022-10-11T15:24:19.909Z,95481.81
2022-10-11T15:26:47.988Z,95473.41
2022-10-11T15:29:17.844Z,95464.41
2022-10-11T15:31:45.048Z,95475.63
2022-10-11T15:34:11.687Z,95469.63
2022-10-11T15:36:38.602Z,95463.88
2022-10-11T15:39:23.388Z,95470.44
2022-10-11T15:41:49.934Z,95477.25
2022-10-11T15:44:16.492Z,95482.19
2022-10-11T15:46:43.851Z,95479.19
2022-10-11T15:49:14.340Z,95469.91
2022-10-11T15:51:41.967Z,95492.44
2022-10-11T15:54:09.015Z,95490.16
2022-10-11T15:56:35.929Z,95487.16
2022-10-11T15:59:02.817Z,95497.16
2022-10-11T16:01:29.530Z,95483.56
2022-10-11T16:03:56.393Z,95497.38
2022-10-11T16:06:23.562Z,95498.97
2022-10-11T16:08:50.852Z,95499.66
2022-10-11T16:11:17.544Z,95499.50
2022-10-11T16:13:45.097Z,95499.63
2022-10-11T16:16:12.449Z,95495.97
2022-10-11T16:18:39.446Z,95504.66
2022-10-11T16:21:09.810Z,95513.59
2022-10-11T16:23:37.344Z,95515.38
2022-10-11T16:26:07.633Z,95506.97
2022-10-11T16:28:35.796Z,95506.78
2022-10-11T16:31:08.129Z,95518.81
2022-10-11T16:33:34.804Z,95524.09
2022-10-11T16:36:26.056Z,95518.50
2022-10-11T16:38:52.790Z,95519.47
2022-10-11T16:41:19.365Z,95521.25
2022-10-11T16:43:49.759Z,95518.59
2022-10-11T16:46:16.734Z,95526.72
2022-10-11T16:48:43.641Z,95519.09
2022-10-11T16:51:10.498Z,95528.19
2022-10-11T16:53:37.435Z,95521.34
2022-10-11T16:56:09.060Z,95525.25
2022-10-11T16:58:36.448Z,95523.00
2022-10-11T17:01:08.192Z,95517.44
2022-10-11T17:03:34.903Z,95514.41
2022-10-11T17:06:01.889Z,95528.97
2022-10-11T17:08:29.147Z,95536.34
2022-10-11T17:10:57.902Z,95532.84
2022-10-11T17:13:24.779Z,95531.81
2022-10-11T17:15:51.394Z,95528.38
2022-10-11T17:18:18.446Z,95536.41
2022-10-11T17:20:45.061Z,95537.66
2022-10-11T17:23:13.106Z,95534.63
2022-10-11T17:25:44.659Z,95529.63
2022-10-11T17:28:11.851Z,95533.41
2022-10-11T17:30:41.736Z,95528.94
2022-10-11T17:33:09.035Z,95536.13
2022-10-11T17:35:38.584Z,95505.13
2022-10-11T17:38:06.302Z,95528.00
2022-10-11T17:40:33.245Z,95529.91
2022-10-11T17:43:00.253Z,95532.44
2022-10-11T17:45:26.863Z,95519.50
2022-10-11T17:47:53.477Z,95540.31
2022-10-11T17:50:20.220Z,95536.34
2022-10-11T17:52:47.345Z,95541.91
2022-10-11T17:55:15.285Z,95541.16
2022-10-11T17:57:42.003Z,95521.47
2022-10-11T18:00:09.409Z,95541.53
2022-10-11T18:02:36.429Z,95538.66
2022-10-11T18:05:03.308Z,95537.91
2022-10-11T18:07:29.989Z,95543.78
2022-10-11T18:09:57.029Z,95558.25
2022-10-11T18:12:23.898Z,95529.63
2022-10-11T18:14:51.275Z,95542.09
2022-10-11T18:17:19.064Z,95550.53
2022-10-11T18:19:45.683Z,95548.81
2022-10-11T18:22:12.593Z,95549.84
2022-10-11T18:24:39.380Z,95539.28
2022-10-11T18:27:06.087Z,95542.88
2022-10-11T18:29:32.793Z,95556.13
2022-10-11T18:31:59.423Z,95544.56
2022-10-11T18:34:26.231Z,95549.28
2022-10-11T18:36:54.088Z,95550.06
2022-10-11T18:39:22.069Z,95546.75
2022-10-11T18:41:48.784Z,95547.97
2022-10-11T18:44:16.567Z,95553.44
2022-10-11T18:46:44.211Z,95544.06
2022-10-11T18:49:11.139Z,95546.34
2022-10-11T18:51:40.411Z,95544.41
2022-10-11T18:54:08.387Z,95555.22
2022-10-11T18:56:37.120Z,95555.06
2022-10-11T18:59:05.676Z,95550.34
2022-10-11T19:01:40.854Z,95555.25
2022-10-11T19:04:09.541Z,95556.97
2022-10-11T19:06:42.571Z,95558.34
2022-10-11T19:09:17.800Z,95508.94
2022-10-11T19:11:44.660Z,95545.88
2022-10-11T19:14:14.912Z,95556.06
2022-10-11T19:16:45.517Z,95560.78
2022-10-11T19:19:13.017Z,95560.78
2022-10-11T19:21:39.758Z,95557.81
2022-10-11T19:24:07.415Z,95567.22
2022-10-11T19:26:37.342Z,95570.25
2022-10-11T19:29:14.680Z,95554.47
2022-10-11T19:31:45.074Z,95570.69
2022-10-11T19:34:12.008Z,95568.28
2022-10-11T19:36:41.090Z,95572.72
2022-10-11T19:39:07.825Z,95573.31
2022-10-11T19:41:34.591Z,95570.13
2022-10-11T19:44:01.236Z,95570.59
2022-10-11T19:49:17.641Z,95579.06
2022-10-11T19:51:44.841Z,95583.63
2022-10-11T19:54:13.777Z,95583.00
2022-10-11T19:56:42.508Z,95579.94
2022-10-11T19:59:10.510Z,95583.41
2022-10-11T20:01:38.014Z,95576.00
2022-10-11T20:04:07.137Z,95584.78
2022-10-11T20:06:38.642Z,95588.44
2022-10-11T20:09:29.564Z,95570.81
2022-10-11T20:11:56.221Z,95582.34
2022-10-11T20:14:22.949Z,95577.31
2022-10-11T20:16:50.734Z,95563.81
2022-10-11T20:19:17.549Z,95568.53
2022-10-11T20:21:45.244Z,95588.31
2022-10-11T20:24:12.180Z,95572.31
2022-10-11T20:26:39.384Z,95577.69
2022-10-11T20:29:06.610Z,95570.59
2022-10-11T20:31:34.958Z,95578.63
2022-10-11T20:34:04.289Z,95578.97
2022-10-11T20:36:32.160Z,95581.56
2022-10-11T20:39:00.224Z,95582.00
2022-10-11T20:41:31.737Z,95584.16
2022-10-11T20:44:00.256Z,95591.75
2022-10-11T20:46:30.021Z,95583.78
2022-10-11T20:49:04.665Z,95584.25
2022-10-11T20:51:33.589Z,95589.97
2022-10-11T20:54:02.162Z,95575.72
2022-10-11T20:56:29.989Z,95588.91
2022-10-11T20:58:57.869Z,95595.91
2022-10-11T21:01:37.164Z,95594.81
2022-10-11T21:04:05.148Z,95596.91
2022-10-11T21:06:32.857Z,95591.19
2022-10-11T21:09:00.276Z,95588.75
2022-10-11T21:11:28.890Z,95596.38
2022-10-11T21:13:57.064Z,95598.78
2022-10-11T21:16:23.867Z,95575.81
2022-10-11T21:18:52.266Z,95590.56
2022-10-11T21:21:19.533Z,95589.50
2022-10-11T21:23:46.816Z,95589.97
2022-10-11T21:26:16.778Z,95585.09
2022-10-11T21:28:46.399Z,95585.91
2022-10-11T21:31:16.591Z,95591.84
2022-10-11T21:33:44.400Z,95575.59
2022-10-11T21:36:19.489Z,95589.16
2022-10-11T21:38:46.673Z,95581.72
2022-10-11T21:41:16.847Z,95574.13
2022-10-11T21:43:44.157Z,95584.97
2022-10-11T21:46:14.037Z,95583.13
2022-10-11T21:48:41.227Z,95588.59
2022-10-11T21:53:41.186Z,95602.44
2022-10-11T21:56:07.903Z,95598.06
2022-10-11T21:58:34.584Z,95593.31
2022-10-11T22:01:01.217Z,95586.47
2022-10-11T22:03:27.896Z,95580.25
2022-10-11T22:05:54.594Z,95582.47
2022-10-11T22:08:21.396Z,95580.31
2022-10-11T22:10:56.969Z,95582.47
2022-10-11T22:13:24.960Z,95580.34
2022-10-11T22:15:51.756Z,95586.56
2022-10-11T22:18:18.743Z,95576.84
2022-10-11T22:20:45.380Z,95573.97
2022-10-11T22:23:12.074Z,95581.13
2022-10-11T22:25:39.245Z,95579.59
2022-10-11T22:28:07.193Z,95584.31
2022-10-11T22:30:34.410Z,95584.03
2022-10-11T22:33:01.071Z,95585.06
2022-10-11T22:35:27.947Z,95576.56
2022-10-11T22:37:54.700Z,95574.91
2022-10-11T22:40:21.391Z,95579.75
2022-10-11T22:42:48.121Z,95585.38
2022-10-11T22:45:14.749Z,95594.50
2022-10-11T22:47:41.467Z,95597.09
2022-10-11T22:50:08.514Z,95593.50
2022-10-11T22:52:35.189Z,95580.75
2022-10-11T22:55:01.836Z,95604.28
2022-10-11T22:57:28.515Z,95588.16
2022-10-11T22:59:55.157Z,95597.28
2022-10-11T23:02:21.714Z,95603.53
2022-10-11T23:04:48.434Z,95606.38
2022-10-11T23:07:15.043Z,95602.91
2022-10-11T23:09:41.590Z,95601.69
2022-10-11T23:12:08.621Z,95601.53
2022-10-11T23:14:35.233Z,95605.03
2022-10-11T23:17:01.851Z,95607.16
2022-10-11T23:19:28.408Z,95588.13
2022-10-11T23:21:55.039Z,95604.53
2022-10-11T23:24:21.713Z,95576.75
2022-10-11T23:26:48.322Z,95603.94
2022-10-11T23:29:14.980Z,95594.06
2022-10-11T23:31:41.581Z,95599.22
2022-10-11T23:34:08.163Z,95611.19
2022-10-11T23:36:34.782Z,95605.56
2022-10-11T23:39:01.429Z,95598.88
2022-10-11T23:41:29.418Z,95603.41
2022-10-11T23:43:57.380Z,95606.44
2022-10-11T23:46:24.313Z,95603.56
2022-10-11T23:48:51.165Z,95611.16
2022-10-11T23:51:17.811Z,95610.59
2022-10-11T23:53:44.366Z,95602.50
2022-10-11T23:56:11.782Z,95599.22
2022-10-11T23:58:38.846Z,95595.56
